.
WxDataArchive / Data Records for 2010-05-01
2010-04-30 May 2010 2010-05-02

Data Records for Saturday, 01 May 2010

Time	Temp	Chill	HIndex	Humid	Dewpt	 Wind 	HiWind	WindDir	Rain 	Barom 
-----	----	-----	------	-----	-----	------	------	-------	-----	----- 
00:00	71.8	71.8	71.8	60	57.2	0	1	90	0.00	29.655 
00:05	71.6	71.6	71.6	60	57.0	1	3	90	0.00	29.655 
00:10	71.5	71.5	71.5	61	57.3	0	2	90	0.00	29.655 
00:15	71.3	71.3	71.3	61	57.1	0	3	90	0.00	29.648 
00:20	71.1	71.1	71.1	62	57.4	0	2	90	0.00	29.648 
00:25	70.9	70.9	70.9	62	57.2	1	3	90	0.00	29.648 
00:30	70.8	70.8	70.8	62	57.1	0	3	90	0.00	29.647 
00:35	70.6	70.6	70.6	62	56.9	1	3	135	0.00	29.647 
00:40	70.4	70.4	70.4	62	56.7	0	3	112	0.00	29.647 
00:45	70.3	70.3	70.3	63	57.1	0	3	22	0.00	29.634 
00:50	70.1	70.1	70.1	63	56.9	1	3	112	0.00	29.634 
00:55	69.9	69.9	69.9	63	56.7	1	4	90	0.00	29.634 
01:00	69.9	69.9	69.9	63	56.7	0	3	45	0.00	29.636 
01:05	69.8	69.8	69.8	63	56.6	0	3	45	0.00	29.636 
01:10	69.8	69.8	69.8	63	56.6	0	4	45	0.00	29.636 
01:15	69.6	69.6	69.6	63	56.4	0	2	45	0.00	29.636 
01:20	69.4	69.4	69.4	63	56.2	0	3	45	0.00	29.636 
01:25	69.4	69.4	69.4	63	56.2	1	3	248	0.00	29.636 
01:30	69.4	69.4	69.4	63	56.2	1	4	270	0.00	29.644 
01:35	69.4	69.4	69.4	63	56.2	1	3	270	0.00	29.644 
01:40	69.4	69.4	69.4	63	56.2	0	1	248	0.00	29.644 
01:45	69.3	69.3	69.3	62	55.7	0	4	292	0.00	29.632 
01:50	69.3	69.3	69.3	62	55.7	1	4	292	0.00	29.632 
01:55	69.3	69.3	69.3	62	55.7	0	3	292	0.00	29.632 
02:00	69.1	69.1	69.1	62	55.5	0	2	292	0.00	29.626 
02:05	68.9	68.9	68.9	62	55.3	0	1	22	0.00	29.626 
02:10	68.8	68.8	68.8	62	55.2	0	2	22	0.00	29.626 
02:15	68.6	68.6	68.6	62	55.0	0	3	270	0.00	29.625 
02:20	68.6	68.6	68.6	63	55.5	0	2	270	0.00	29.625 
02:25	68.4	68.4	68.4	63	55.3	1	4	270	0.00	29.625 
02:30	68.4	68.4	68.4	63	55.3	0	3	315	0.00	29.627 
02:35	68.4	68.4	68.4	63	55.3	1	7	248	0.00	29.627 
02:40	68.4	68.4	68.4	63	55.3	0	2	225	0.00	29.627 
02:45	68.4	68.4	68.4	63	55.3	1	4	90	0.00	29.622 
02:50	68.4	68.4	68.4	63	55.3	1	3	90	0.00	29.622 
02:55	68.4	68.4	68.4	63	55.3	1	3	315	0.00	29.622 
03:00	68.6	68.6	68.6	63	55.5	1	3	270	0.00	29.621 
03:05	68.8	68.8	68.8	63	55.7	1	4	248	0.00	29.621 
03:10	68.8	68.8	68.8	63	55.7	1	4	292	0.00	29.621 
03:15	69.1	69.1	69.1	63	56.0	1	6	248	0.00	29.622 
03:20	69.1	69.1	69.1	63	56.0	1	4	225	0.00	29.622 
03:25	69.1	69.1	69.1	63	56.0	0	3	248	0.00	29.622 
03:30	69.3	69.3	69.3	63	56.2	1	3	248	0.00	29.623 
03:35	69.4	69.4	69.4	63	56.2	1	5	248	0.00	29.623 
03:40	69.6	69.6	69.6	63	56.4	1	5	248	0.00	29.623 
03:45	69.8	69.8	69.8	62	56.2	1	4	315	0.00	29.619 
03:50	69.9	69.9	69.9	62	56.3	1	6	225	0.00	29.619 
03:55	70.1	70.1	70.1	62	56.5	1	5	315	0.00	29.619 
04:00	70.3	70.3	70.3	62	56.7	1	2	68	0.00	29.615 
04:05	70.3	70.3	70.3	62	56.7	1	11	270	0.00	29.615 
04:10	70.3	70.3	70.3	62	56.7	1	3	112	0.00	29.615 
04:15	70.4	70.4	70.4	62	56.7	1	2	270	0.00	29.616 
04:20	70.4	70.4	70.4	61	56.3	1	5	270	0.00	29.616 
04:25	70.6	70.6	70.6	62	56.9	1	4	270	0.00	29.616 
04:30	70.6	70.6	70.6	62	56.9	0	2	68	0.00	29.613 
04:35	70.4	70.4	70.4	62	56.7	1	3	112	0.00	29.613 
04:40	70.4	70.4	70.4	62	56.7	1	5	248	0.00	29.613 
04:45	70.4	70.4	70.4	62	56.7	1	5	112	0.00	29.619 
04:50	70.4	70.4	70.4	62	56.7	1	4	68	0.00	29.619 
04:55	70.4	70.4	70.4	63	57.2	1	3	270	0.00	29.619 
05:00	70.3	70.3	70.3	65	58.0	3	7	270	0.00	29.666 
05:05	68.9	68.9	68.9	74	60.3	5	14	270	0.01	29.666 
05:10	66.9	66.9	66.9	82	61.2	3	9	270	0.05	29.666 
05:15	65.8	65.8	65.8	85	61.2	2	4	248	0.06	29.683 
05:20	65.2	65.2	65.2	88	61.6	1	6	248	0.01	29.683 
05:25	64.7	64.7	64.7	90	61.7	1	5	248	0.00	29.683 
05:30	64.5	64.5	64.5	91	61.8	1	3	90	0.01	29.676 
05:35	64.3	64.3	64.3	92	61.9	1	2	90	0.01	29.676 
05:40	64.2	64.2	64.2	92	61.8	1	2	90	0.02	29.676 
05:45	63.9	63.9	63.9	92	61.5	0	2	270	0.03	29.690 
05:50	63.7	63.7	63.7	92	61.3	1	4	270	0.02	29.690 
05:55	63.5	63.5	63.5	93	61.4	1	5	270	0.03	29.690 
06:00	63.5	63.5	63.5	93	61.4	2	5	248	0.01	29.688 
06:05	63.4	63.4	63.4	93	61.3	2	11	270	0.01	29.688 
06:10	63.4	63.4	63.4	93	61.3	2	10	248	0.01	29.688 
06:15	63.4	63.4	63.4	94	61.6	2	10	225	0.02	29.698 
06:20	63.4	63.4	63.4	94	61.6	2	7	248	0.01	29.698 
06:25	63.4	63.4	63.4	94	61.6	2	7	248	0.02	29.698 
06:30	63.4	63.4	63.4	94	61.6	2	6	248	0.01	29.700 
06:35	63.4	63.4	63.4	94	61.6	2	5	248	0.01	29.700 
06:40	63.4	63.4	63.4	94	61.6	1	3	248	0.02	29.700 
06:45	63.2	63.2	63.2	94	61.4	2	6	270	0.00	29.701 
06:50	63.2	63.2	63.2	94	61.4	2	6	248	0.01	29.701 
06:55	63.2	63.2	63.2	94	61.4	1	4	248	0.01	29.701 
07:00	63.2	63.2	63.2	94	61.4	1	4	270	0.00	29.689 
07:05	63.1	63.1	63.1	94	61.3	1	5	248	0.00	29.689 
07:10	63.1	63.1	63.1	95	61.6	0	3	338	0.01	29.689 
07:15	63.1	63.1	63.1	95	61.6	1	4	225	0.00	29.686 
07:20	63.1	63.1	63.1	95	61.6	1	5	225	0.00	29.686 
07:25	63.1	63.1	63.1	95	61.6	1	3	248	0.00	29.686 
07:30	63.1	63.1	63.1	95	61.6	1	4	248	0.00	29.674 
07:35	63.1	63.1	63.1	95	61.6	0	1	248	0.00	29.674 
07:40	62.9	62.9	62.9	95	61.4	0	1	248	0.00	29.674 
07:45	62.9	62.9	62.9	95	61.4	0	1	248	0.01	29.681 
07:50	62.9	62.9	62.9	95	61.4	0	1	248	0.00	29.681 
07:55	62.9	62.9	62.9	95	61.4	0	2	248	0.00	29.681 
08:00	62.9	62.9	62.9	95	61.4	0	2	248	0.00	29.674 
08:05	62.9	62.9	62.9	95	61.4	0	2	248	0.00	29.674 
08:10	63.1	63.1	63.1	95	61.6	0	1	248	0.01	29.674 
08:15	63.1	63.1	63.1	95	61.6	0	2	248	0.00	29.684 
08:20	63.1	63.1	63.1	95	61.6	0	1	248	0.00	29.684 
08:25	63.1	63.1	63.1	95	61.6	0	2	202	0.00	29.684 
08:30	63.1	63.1	63.1	95	61.6	0	1	202	0.00	29.674 
08:35	63.1	63.1	63.1	95	61.6	0	2	202	0.00	29.674 
08:40	63.1	63.1	63.1	95	61.6	0	2	202	0.00	29.674 
08:45	63.1	63.1	63.1	95	61.6	0	1	202	0.00	29.680 
08:50	63.1	63.1	63.1	95	61.6	0	1	202	0.00	29.680 
08:55	63.2	63.2	63.2	95	61.7	0	3	202	0.00	29.680 
09:00	63.2	63.2	63.2	95	61.7	0	2	270	0.00	29.675 
09:05	63.4	63.4	63.4	95	61.9	0	2	270	0.00	29.675 
09:10	63.4	63.4	63.4	95	61.9	0	2	270	0.00	29.675 
09:15	63.5	63.5	63.5	95	62.0	0	4	270	0.00	29.681 
09:20	63.4	63.4	63.4	95	61.9	1	4	270	0.00	29.681 
09:25	63.5	63.5	63.5	95	62.0	0	2	270	0.00	29.681 
09:30	63.7	63.7	63.7	95	62.2	0	3	248	0.00	29.691 
09:35	63.7	63.7	63.7	95	62.2	1	3	270	0.00	29.691 
09:40	63.7	63.7	63.7	94	61.9	1	6	270	0.00	29.691 
09:45	63.7	63.7	63.7	94	61.9	1	4	248	0.00	29.703 
09:50	63.9	63.9	63.9	94	62.1	2	6	248	0.00	29.703 
09:55	64.0	64.0	64.0	93	61.9	1	5	270	0.00	29.703 
10:00	64.2	64.2	64.2	93	62.1	1	5	248	0.00	29.705 
10:05	64.3	64.3	64.3	92	61.9	1	5	248	0.00	29.705 
10:10	64.7	64.7	64.7	92	62.3	2	5	248	0.00	29.705 
10:15	64.8	64.8	64.8	91	62.1	2	5	248	0.00	29.702 
10:20	65.3	65.3	65.3	91	62.6	1	4	270	0.00	29.702 
10:25	65.6	65.6	65.6	89	62.3	2	7	270	0.00	29.702 
10:30	66.0	66.0	66.0	89	62.7	2	4	248	0.00	29.701 
10:35	66.1	66.1	66.1	88	62.4	2	6	248	0.00	29.701 
10:40	66.4	66.4	66.4	87	62.4	2	7	0	0.00	29.701 
10:45	66.6	66.6	66.6	86	62.3	2	6	248	0.00	29.701 
10:50	66.9	66.9	66.9	86	62.6	2	6	248	0.00	29.701 
10:55	67.1	67.1	67.1	84	62.1	3	10	292	0.00	29.701 
11:00	67.3	67.3	67.3	84	62.3	2	7	248	0.00	29.702 
11:05	67.4	67.4	67.4	83	62.0	2	10	90	0.00	29.702 
11:10	67.6	67.6	67.6	84	62.6	2	5	270	0.00	29.702 
11:15	67.6	67.6	67.6	83	62.2	2	6	68	0.00	29.705 
11:20	67.4	67.4	67.4	83	62.0	2	8	292	0.00	29.705 
11:25	67.4	67.4	67.4	83	62.0	2	7	270	0.00	29.705 
11:30	67.3	67.3	67.3	82	61.6	2	6	270	0.00	29.709 
11:35	67.1	67.1	67.1	82	61.4	2	5	270	0.00	29.709 
11:40	66.9	66.9	66.9	83	61.6	2	6	248	0.00	29.709 
11:45	66.9	66.9	66.9	83	61.6	1	4	270	0.00	29.715 
11:50	67.3	67.3	67.3	84	62.3	1	6	90	0.00	29.715 
11:55	67.6	67.6	67.6	83	62.2	2	9	270	0.00	29.715 
12:00	67.9	67.9	67.9	82	62.2	2	7	248	0.00	29.718 
12:05	67.9	67.9	67.9	82	62.2	2	6	315	0.00	29.718 
12:10	67.9	67.9	67.9	81	61.8	2	5	292	0.00	29.718 
12:15	67.8	67.8	67.8	81	61.7	3	7	270	0.00	29.724 
12:20	67.9	67.9	67.9	81	61.8	2	9	270	0.00	29.724 
12:25	68.1	68.1	68.1	81	62.0	3	8	248	0.00	29.724 
12:30	68.4	68.4	68.4	81	62.3	2	6	270	0.00	29.723 
12:35	68.9	68.9	68.9	80	62.5	2	6	270	0.00	29.723 
12:40	68.9	68.9	68.9	79	62.1	3	9	225	0.00	29.723 
12:45	68.8	68.8	68.8	78	61.7	4	9	270	0.00	29.719 
12:50	68.8	68.8	68.8	79	62.0	2	4	248	0.00	29.719 
12:55	68.8	68.8	68.8	78	61.7	2	7	270	0.00	29.719 
13:00	68.8	68.8	68.8	78	61.7	3	9	292	0.00	29.717 
13:05	68.8	68.8	68.8	78	61.7	2	7	248	0.00	29.717 
13:10	68.6	68.6	68.6	79	61.8	2	5	270	0.00	29.717 
13:15	68.6	68.6	68.6	80	62.2	2	6	270	0.00	29.716 
13:20	68.9	68.9	68.9	80	62.5	2	5	315	0.00	29.716 
13:25	69.4	69.4	69.4	80	63.0	2	5	270	0.00	29.716 
13:30	69.8	69.8	69.8	77	62.3	3	6	248	0.00	29.705 
13:35	69.9	69.9	69.9	77	62.3	3	7	270	0.00	29.705 
13:40	70.1	70.1	70.1	76	62.2	2	5	270	0.00	29.705 
13:45	70.1	70.1	70.1	77	62.5	1	4	248	0.00	29.689 
13:50	70.1	70.1	70.1	76	62.2	3	6	270	0.00	29.689 
13:55	70.4	70.4	70.4	75	62.1	3	9	248	0.00	29.689 
14:00	70.9	70.9	70.9	74	62.2	3	11	270	0.00	29.684 
14:05	72.0	72.0	72.0	74	63.2	2	5	248	0.00	29.684 
14:10	72.5	72.5	72.5	71	62.5	3	9	270	0.00	29.684 
14:15	72.8	72.8	72.8	72	63.2	1	3	225	0.00	29.673 
14:20	73.2	73.2	73.2	70	62.8	1	4	90	0.00	29.673 
14:25	73.0	73.0	73.0	70	62.6	2	4	292	0.00	29.673 
14:30	72.8	72.8	72.8	71	62.8	2	6	248	0.00	29.688 
14:35	72.5	72.5	72.5	70	62.1	2	5	248	0.00	29.688 
14:40	72.1	72.1	72.1	72	62.6	2	7	90	0.00	29.688 
14:45	72.0	72.0	72.0	72	62.5	2	4	248	0.00	29.681 
14:50	72.0	72.0	72.0	72	62.5	2	4	270	0.00	29.681 
14:55	72.1	72.1	72.1	71	62.2	2	9	248	0.00	29.681 
15:00	72.1	72.1	72.1	71	62.2	2	5	270	0.00	29.670 
15:05	72.3	72.3	72.3	71	62.4	1	5	292	0.00	29.670 
15:10	72.1	72.1	72.1	71	62.2	2	7	270	0.00	29.670 
15:15	71.8	71.8	71.8	70	61.5	4	10	270	0.00	29.680 
15:20	71.6	71.6	71.6	72	62.1	2	6	270	0.00	29.680 
15:25	71.3	71.3	71.3	73	62.2	2	7	270	0.00	29.680 
15:30	71.3	71.3	71.3	73	62.2	2	5	270	0.00	29.688 
15:35	71.8	71.8	71.8	73	62.7	1	6	270	0.00	29.688 
15:40	72.0	72.0	72.0	70	61.7	2	4	248	0.00	29.688 
15:45	71.8	71.8	71.8	70	61.5	2	13	270	0.00	29.685 
15:50	71.8	71.8	71.8	71	61.9	1	5	248	0.00	29.685 
15:55	71.6	71.6	71.6	70	61.3	3	7	248	0.00	29.685 
16:00	71.5	71.5	71.5	71	61.6	2	5	248	0.00	29.676 
16:05	71.5	71.5	71.5	71	61.6	1	5	248	0.00	29.676 
16:10	71.5	71.5	71.5	71	61.6	2	7	270	0.00	29.676 
16:15	71.5	71.5	71.5	72	62.0	1	5	248	0.00	29.673 
16:20	71.6	71.6	71.6	72	62.1	1	5	225	0.00	29.673 
16:25	71.5	71.5	71.5	73	62.4	2	11	270	0.00	29.673 
16:30	71.1	71.1	71.1	73	62.0	1	5	270	0.00	29.672 
16:35	71.1	71.1	71.1	72	61.6	2	6	270	0.00	29.672 
16:40	71.1	71.1	71.1	71	61.2	3	7	292	0.00	29.672 
16:45	71.1	71.1	71.1	72	61.6	2	6	225	0.00	29.669 
16:50	71.1	71.1	71.1	72	61.6	3	6	248	0.00	29.669 
16:55	70.9	70.9	70.9	73	61.8	1	6	248	0.00	29.669 
17:00	70.9	70.9	70.9	73	61.8	2	7	270	0.00	29.656 
17:05	70.8	70.8	70.8	74	62.1	2	6	248	0.00	29.656 
17:10	70.6	70.6	70.6	74	61.9	1	5	90	0.00	29.656 
17:15	70.4	70.4	70.4	74	61.7	1	5	248	0.00	29.648 
17:20	70.3	70.3	70.3	74	61.6	1	4	315	0.00	29.648 
17:25	70.1	70.1	70.1	75	61.8	2	4	270	0.00	29.648 
17:30	70.3	70.3	70.3	76	62.4	1	4	225	0.00	29.645 
17:35	70.3	70.3	70.3	76	62.4	1	4	248	0.00	29.645 
17:40	70.4	70.4	70.4	76	62.5	1	5	270	0.00	29.645 
17:45	70.3	70.3	70.3	74	61.6	2	5	270	0.00	29.646 
17:50	70.3	70.3	70.3	75	62.0	1	6	248	0.00	29.646 
17:55	70.1	70.1	70.1	75	61.8	1	6	225	0.00	29.646 
18:00	70.1	70.1	70.1	75	61.8	1	4	248	0.00	29.652 
18:05	70.1	70.1	70.1	75	61.8	1	3	248	0.00	29.652 
18:10	69.9	69.9	69.9	76	62.0	1	4	248	0.00	29.652 
18:15	69.8	69.8	69.8	75	61.5	2	5	248	0.00	29.662 
18:20	69.8	69.8	69.8	76	61.9	1	4	270	0.00	29.662 
18:25	69.6	69.6	69.6	76	61.7	1	3	270	0.00	29.662 
18:30	69.6	69.6	69.6	77	62.1	1	4	248	0.00	29.676 
18:35	69.4	69.4	69.4	77	61.9	2	5	270	0.00	29.676 
18:40	69.4	69.4	69.4	77	61.9	2	5	270	0.00	29.676 
18:45	69.3	69.3	69.3	78	62.1	1	5	248	0.00	29.684 
18:50	69.3	69.3	69.3	78	62.1	1	4	248	0.00	29.684 
18:55	69.1	69.1	69.1	78	61.9	1	4	248	0.00	29.684 
19:00	68.9	68.9	68.9	79	62.1	2	5	270	0.00	29.682 
19:05	68.6	68.6	68.6	81	62.5	1	3	270	0.00	29.682 
19:10	68.3	68.3	68.3	82	62.6	1	5	248	0.00	29.682 
19:15	67.8	67.8	67.8	84	62.8	0	1	248	0.00	29.680 
19:20	67.6	67.6	67.6	85	62.9	0	2	248	0.00	29.680 
19:25	67.3	67.3	67.3	86	63.0	0	3	248	0.00	29.680 
19:30	67.1	67.1	67.1	86	62.8	0	3	248	0.00	29.674 
19:35	66.9	66.9	66.9	87	62.9	0	1	248	0.00	29.674 
19:40	66.9	66.9	66.9	87	62.9	0	3	248	0.00	29.674 
19:45	66.8	66.8	66.8	87	62.8	0	3	248	0.00	29.679 
19:50	66.8	66.8	66.8	88	63.1	0	1	248	0.00	29.679 
19:55	66.8	66.8	66.8	88	63.1	1	4	248	0.00	29.679 
20:00	66.6	66.6	66.6	87	62.6	1	3	315	0.00	29.679 
20:05	66.6	66.6	66.6	87	62.6	1	5	270	0.00	29.679 
20:10	66.4	66.4	66.4	87	62.4	1	5	270	0.00	29.679 
20:15	66.6	66.6	66.6	87	62.6	1	4	270	0.00	29.671 
20:20	66.6	66.6	66.6	87	62.6	1	5	270	0.00	29.671 
20:25	66.6	66.6	66.6	87	62.6	1	3	270	0.00	29.671 
20:30	66.6	66.6	66.6	87	62.6	1	3	270	0.00	29.677 
20:35	66.6	66.6	66.6	86	62.3	1	3	270	0.00	29.677 
20:40	66.6	66.6	66.6	86	62.3	0	3	292	0.00	29.677 
20:45	66.6	66.6	66.6	86	62.3	1	5	248	0.00	29.674 
20:50	66.6	66.6	66.6	86	62.3	0	2	68	0.00	29.674 
20:55	66.6	66.6	66.6	86	62.3	1	2	68	0.00	29.674 
21:00	66.6	66.6	66.6	86	62.3	0	1	68	0.00	29.674 
21:05	66.6	66.6	66.6	86	62.3	0	3	292	0.00	29.674 
21:10	66.6	66.6	66.6	86	62.3	0	2	292	0.00	29.674 
21:15	66.6	66.6	66.6	86	62.3	0	2	292	0.00	29.679 
21:20	66.6	66.6	66.6	86	62.3	1	4	248	0.00	29.679 
21:25	66.6	66.6	66.6	87	62.6	0	3	270	0.00	29.679 
21:30	66.4	66.4	66.4	87	62.4	0	2	270	0.00	29.682 
21:35	66.4	66.4	66.4	88	62.7	0	3	270	0.00	29.682 
21:40	66.4	66.4	66.4	88	62.7	0	2	270	0.00	29.682 
21:45	66.1	66.1	66.1	89	62.8	0	2	270	0.00	29.688 
21:50	66.0	66.0	66.0	90	63.0	0	1	270	0.00	29.688 
21:55	66.0	66.0	66.0	90	63.0	0	1	270	0.00	29.688 
22:00	65.8	65.8	65.8	90	62.8	0	2	315	0.00	29.683 
22:05	65.8	65.8	65.8	91	63.1	0	2	315	0.00	29.683 
22:10	65.6	65.6	65.6	91	62.9	0	3	292	0.00	29.683 
22:15	65.6	65.6	65.6	91	62.9	0	1	292	0.00	29.684 
22:20	65.6	65.6	65.6	91	62.9	0	1	292	0.00	29.684 
22:25	65.6	65.6	65.6	91	62.9	0	1	292	0.00	29.684 
22:30	65.6	65.6	65.6	91	62.9	0	0	---	0.00	29.688 
22:35	65.6	65.6	65.6	91	62.9	0	0	---	0.00	29.688 
22:40	65.5	65.5	65.5	91	62.8	0	0	---	0.00	29.688 
22:45	65.5	65.5	65.5	91	62.8	0	1	292	0.00	29.686 
22:50	65.5	65.5	65.5	91	62.8	0	0	---	0.00	29.686 
22:55	65.5	65.5	65.5	90	62.5	0	2	292	0.00	29.686 
23:00	65.5	65.5	65.5	90	62.5	0	2	315	0.00	29.683 
23:05	65.6	65.6	65.6	90	62.6	0	1	315	0.00	29.683 
23:10	65.6	65.6	65.6	89	62.3	0	2	315	0.00	29.683 
23:15	65.8	65.8	65.8	89	62.5	0	1	315	0.00	29.676 
23:20	66.0	66.0	66.0	88	62.3	0	2	315	0.00	29.676 
23:25	66.0	66.0	66.0	88	62.3	0	2	315	0.00	29.676 
23:30	66.0	66.0	66.0	87	62.0	0	3	0	0.00	29.672 
23:35	66.0	66.0	66.0	87	62.0	0	2	135	0.00	29.672 
23:40	66.1	66.1	66.1	86	61.8	1	3	45	0.00	29.672 
23:45	66.0	66.0	66.0	86	61.7	0	6	45	0.00	29.660 
23:50	66.0	66.0	66.0	86	61.7	1	5	90	0.00	29.660 
23:55	65.8	65.8	65.8	86	61.5	0	4	90	0.00	29.660 

CoCoRaHS
IN-AL-39
A2 Web Hosting
Creative Commons License
GoDaddy
search engine by freefind advanced

loaded 2018-11-12 15:12:50 • last modified 2010-11-18 10:43:29
Privacy PolicyDisclaimer
• wx.awcolley.com is powered by PmWiki v.2002016 •
• all content (unless otherwise noted) © 2018 A W Colley